Time;durP1;ratioP1;P1;durP2;ratioP2;P2;SDS_P1;SDS_P2;PMS_P1;PMS_P2;Temp;Humidity;BMP_temperature;BMP_pressure;BME280_temperature;BME280_humidity;BME280_pressure;Samples;Min_cycle;Max_cycle;Signal;HPM_P1;HPM_P2
2022/09/27 00:02:02;;;;;;;8.20;3.03;;;;;;;9.86;100.00;99365.88;4964495;28;20078;-76
2022/09/27 00:04:27;;;;;;;11.15;3.53;;;;;;;9.87;100.00;99364.91;4985338;28;20431;-76
2022/09/27 00:06:53;;;;;;;7.18;3.88;;;;;;;9.81;100.00;99367.44;4982859;28;20416;-76
2022/09/27 00:09:19;;;;;;;9.55;3.88;;;;;;;9.84;100.00;99370.44;4983797;28;20073;-77
2022/09/27 00:11:46;;;;;;;13.02;3.90;;;;;;;9.86;100.00;99372.88;4982990;28;20057;-76
2022/09/27 00:14:13;;;;;;;10.55;4.10;;;;;;;9.78;100.00;99373.00;4981627;28;20404;-76
2022/09/27 00:16:40;;;;;;;12.00;4.20;;;;;;;9.82;100.00;99377.59;4980314;28;20125;-76
2022/09/27 00:19:11;;;;;;;13.45;4.45;;;;;;;9.89;100.00;99373.28;4981074;28;20045;-76
2022/09/27 00:21:36;;;;;;;12.07;3.47;;;;;;;9.67;100.00;99376.88;4983305;28;20039;-76
2022/09/27 00:24:02;;;;;;;6.78;2.85;;;;;;;9.65;100.00;99384.03;5000700;28;20089;-76
2022/09/27 00:26:28;;;;;;;7.30;2.70;;;;;;;9.73;100.00;99382.09;4984676;28;20034;-77
2022/09/27 00:28:54;;;;;;;6.95;2.30;;;;;;;9.68;100.00;99387.03;4983619;28;20038;-75
2022/09/27 00:31:25;;;;;;;8.05;2.33;;;;;;;9.69;100.00;99395.59;4978607;28;20128;-76
2022/09/27 00:33:52;;;;;;;8.20;2.85;;;;;;;9.74;100.00;99388.09;4984613;28;20041;-76
2022/09/27 00:36:19;;;;;;;8.50;2.50;;;;;;;9.67;100.00;99387.22;4982283;28;20539;-76
2022/09/27 00:38:46;;;;;;;9.93;2.70;;;;;;;9.68;100.00;99396.56;4984935;28;20161;-76
2022/09/27 00:41:18;;;;;;;8.88;2.40;;;;;;;9.65;100.00;99390.00;4966651;28;20023;-76
2022/09/27 00:43:49;;;;;;;5.05;1.83;;;;;;;9.66;100.00;99388.19;4979935;28;20022;-77
2022/09/27 00:46:40;;;;;;;4.53;2.22;;;;;;;9.67;100.00;99389.81;4964037;28;20034;-76
2022/09/27 00:49:22;;;;;;;8.85;2.78;;;;;;;9.70;100.00;99394.59;4967280;28;20034;-77
2022/09/27 00:51:53;;;;;;;7.35;2.80;;;;;;;9.74;100.00;99398.44;4981138;28;20030;-76
2022/09/27 00:54:23;;;;;;;9.32;2.60;;;;;;;9.78;100.00;99397.09;4979167;28;20022;-76
2022/09/27 00:56:49;;;;;;;10.68;3.42;;;;;;;9.66;100.00;99398.56;4990436;28;20525;-77
2022/09/27 00:59:29;;;;;;;6.97;2.50;;;;;;;9.66;100.00;99398.56;4989983;28;20030;-77
2022/09/27 01:01:54;;;;;;;8.95;2.90;;;;;;;9.55;100.00;99395.47;4988543;28;20479;-77
2022/09/27 01:04:23;;;;;;;8.40;3.10;;;;;;;9.62;100.00;99397.31;4995279;28;20042;-77
2022/09/27 01:06:49;;;;;;;8.13;3.00;;;;;;;9.70;100.00;99402.38;5003193;28;20027;-76
2022/09/27 01:09:15;;;;;;;9.07;2.67;;;;;;;9.69;100.00;99403.38;4993099;28;20034;-76
2022/09/27 01:11:53;;;;;;;10.38;3.20;;;;;;;9.63;100.00;99402.31;4972282;28;20026;-76
2022/09/27 01:14:38;;;;;;;12.02;3.88;;;;;;;9.65;100.00;99413.28;4985279;28;20026;-77
2022/09/27 01:17:23;;;;;;;10.43;3.53;;;;;;;9.57;100.00;99404.81;4988149;28;20034;-76
2022/09/27 01:20:28;;;;;;;6.28;3.30;;;;;;;9.63;100.00;99409.28;4987150;28;20117;-77
2022/09/27 01:23:18;;;;;;;10.38;3.10;;;;;;;9.68;100.00;99409.50;4985599;28;20034;-77
2022/09/27 01:26:07;;;;;;;11.32;4.32;;;;;;;9.63;100.00;99417.06;4985661;28;20030;-76
2022/09/27 01:28:59;;;;;;;10.25;4.50;;;;;;;9.55;100.00;99412.78;4988039;28;20038;-76
2022/09/27 01:31:35;;;;;;;7.45;3.30;;;;;;;9.61;100.00;99409.47;4973240;28;20035;-76
2022/09/27 01:34:25;;;;;;;7.25;3.58;;;;;;;9.66;100.00;99412.31;4975245;28;20034;-76
2022/09/27 01:37:14;;;;;;;11.68;4.30;;;;;;;9.59;100.00;99411.44;4985632;28;20031;-77
2022/09/27 01:40:01;;;;;;;9.73;3.35;;;;;;;9.55;100.00;99418.75;4987265;28;20044;-77
2022/09/27 01:42:36;;;;;;;7.35;3.50;;;;;;;9.62;100.00;99418.03;4986802;28;20038;-76
2022/09/27 01:45:21;;;;;;;7.05;4.05;;;;;;;9.49;100.00;99410.91;4985599;28;20064;-77
2022/09/27 01:48:03;;;;;;;9.05;3.88;;;;;;;9.61;100.00;99419.81;4987543;28;20154;-78
2022/09/27 01:51:03;;;;;;;8.25;3.80;;;;;;;9.58;100.00;99415.00;4987901;28;20073;-76
2022/09/27 01:53:36;;;;;;;9.77;3.97;;;;;;;9.46;100.00;99422.44;4987582;28;20399;-76
2022/09/27 01:56:25;;;;;;;10.07;4.10;;;;;;;9.56;100.00;99422.16;4986745;28;20054;-77
2022/09/27 01:59:12;;;;;;;11.40;4.53;;;;;;;9.42;100.00;99428.16;4967030;28;20602;-76
2022/09/27 02:01:47;;;;;;;11.07;4.68;;;;;;;9.38;100.00;99425.16;4983830;28;20117;-76
2022/09/27 02:04:19;;;;;;;11.70;4.00;;;;;;;9.41;100.00;99421.38;4986534;28;20038;-76
2022/09/27 02:07:10;;;;;;;12.45;4.35;;;;;;;9.41;100.00;99429.13;4988354;28;20037;-78
2022/09/27 02:10:13;;;;;;;7.97;4.32;;;;;;;9.39;100.00;99433.69;4984980;28;20030;-77
2022/09/27 02:13:20;;;;;;;6.20;3.88;;;;;;;9.45;100.00;99430.38;4967362;28;20046;-76
2022/09/27 02:15:57;;;;;;;11.23;4.60;;;;;;;9.45;100.00;99433.75;4979430;28;20046;-77
2022/09/27 02:19:00;;;;;;;10.05;4.30;;;;;;;9.54;100.00;99437.06;4985532;28;20061;-76
2022/09/27 02:21:38;;;;;;;8.00;4.32;;;;;;;9.48;100.00;99433.41;4972137;28;20045;-76
2022/09/27 02:24:07;;;;;;;6.22;3.92;;;;;;;9.48;100.00;99437.78;4988282;28;20038;-76
2022/09/27 02:26:40;;;;;;;8.40;3.75;;;;;;;9.43;100.00;99438.31;4973696;28;20030;-76
2022/09/27 02:29:07;;;;;;;12.30;3.60;;;;;;;9.43;100.00;99440.09;4991235;28;20026;-76
2022/09/27 02:31:41;;;;;;;5.78;3.67;;;;;;;9.34;100.00;99447.97;4987627;28;20034;-76
2022/09/27 02:34:16;;;;;;;6.88;3.63;;;;;;;9.29;100.00;99439.16;4973958;28;20034;-77
2022/09/27 02:36:42;;;;;;;9.18;3.10;;;;;;;9.36;100.00;99447.78;4988400;28;20057;-76
2022/09/27 02:39:08;;;;;;;5.50;2.97;;;;;;;9.25;100.00;99456.00;4973801;28;20062;-76
2022/09/27 02:41:37;;;;;;;6.40;3.13;;;;;;;9.14;100.00;99457.28;4972371;28;20050;-77
2022/09/27 02:44:09;;;;;;;8.55;2.92;;;;;;;9.21;100.00;99459.94;4991333;28;20034;-76
2022/09/27 02:46:55;;;;;;;9.45;2.35;;;;;;;9.20;100.00;99460.94;4974184;28;20053;-76
2022/09/27 02:49:40;;;;;;;8.63;2.90;;;;;;;9.09;100.00;99460.38;4987262;28;20476;-77
2022/09/27 02:53:07;;;;;;;7.43;2.60;;;;;;;9.06;100.00;99462.50;4983455;28;20070;-76
2022/09/27 02:55:50;;;;;;;4.88;1.98;;;;;;;9.09;100.00;99462.16;4964152;28;20154;-76
2022/09/27 02:59:18;;;;;;;9.15;2.60;;;;;;;8.90;100.00;99471.25;4997476;28;20438;-76
2022/09/27 03:02:11;;;;;;;9.27;2.38;;;;;;;8.94;100.00;99460.38;4969994;28;20134;-77
2022/09/27 03:05:05;;;;;;;2.90;1.55;;;;;;;8.98;100.00;99465.19;4974311;28;20480;-76
2022/09/27 03:07:31;;;;;;;6.10;2.65;;;;;;;8.84;100.00;99457.25;4987017;28;20045;-77
2022/09/27 03:09:57;;;;;;;6.70;1.50;;;;;;;8.79;100.00;99463.94;4985092;28;20039;-79
2022/09/27 03:12:26;;;;;;;5.63;1.27;;;;;;;8.81;100.00;99464.56;5001326;28;20042;-77
2022/09/27 03:14:59;;;;;;;9.73;2.40;;;;;;;8.89;100.00;99467.06;4968471;28;20072;-77
2022/09/27 03:17:43;;;;;;;2.30;1.40;;;;;;;8.89;100.00;99462.72;4985935;28;20053;-77
2022/09/27 03:20:28;;;;;;;7.13;1.85;;;;;;;8.84;100.00;99467.59;4986084;28;20133;-77
2022/09/27 03:23:03;;;;;;;6.20;1.92;;;;;;;8.75;100.00;99472.03;4986726;28;20760;-76
2022/09/27 03:25:29;;;;;;;6.90;2.22;;;;;;;8.68;100.00;99475.50;4970931;28;20042;-77
2022/09/27 03:27:54;;;;;;;11.65;1.90;;;;;;;8.74;100.00;99469.66;4972670;28;20045;-78
2022/09/27 03:30:20;;;;;;;5.13;1.70;;;;;;;8.74;100.00;99470.44;4987001;28;20030;-77
2022/09/27 03:32:45;;;;;;;5.63;1.58;;;;;;;8.77;100.00;99472.66;4987004;28;20627;-77
2022/09/27 03:35:42;;;;;;;10.10;2.13;;;;;;;8.64;100.00;99480.22;4978545;28;20645;-74
2022/09/27 03:38:08;;;;;;;4.63;1.80;;;;;;;8.68;100.00;99483.25;4988985;28;20034;-75
2022/09/27 03:40:35;;;;;;;9.20;1.80;;;;;;;8.61;100.00;99474.59;4969205;28;20045;-76
2022/09/27 03:43:00;;;;;;;8.82;2.05;;;;;;;8.63;100.00;99480.41;4973066;28;20046;-77
2022/09/27 03:45:26;;;;;;;5.15;1.55;;;;;;;8.64;100.00;99475.03;4969635;28;20146;-78
2022/09/27 03:47:53;;;;;;;3.83;1.42;;;;;;;8.58;100.00;99468.78;4971627;28;20031;-77
2022/09/27 03:50:18;;;;;;;5.53;1.30;;;;;;;8.61;100.00;99466.84;4984750;28;20576;-78
2022/09/27 03:52:44;;;;;;;7.43;1.38;;;;;;;8.60;100.00;99471.22;4985805;28;20041;-76
2022/09/27 03:55:11;;;;;;;8.90;1.30;;;;;;;8.53;100.00;99475.47;4971291;28;20507;-77
2022/09/27 03:57:37;;;;;;;9.30;1.67;;;;;;;8.51;100.00;99478.25;4983583;28;20030;-77
2022/09/27 04:00:05;;;;;;;2.47;1.20;;;;;;;8.43;100.00;99480.88;4983587;28;20034;-78
2022/09/27 04:02:40;;;;;;;10.40;1.15;;;;;;;8.44;100.00;99476.50;4983677;28;20060;-78
2022/09/27 04:05:40;;;;;;;2.97;1.10;;;;;;;8.50;100.00;99470.66;4984506;28;20057;-77
2022/09/27 04:08:11;;;;;;;6.72;1.23;;;;;;;8.56;100.00;99480.28;4971228;28;20584;-77
2022/09/27 04:10:36;;;;;;;3.42;0.90;;;;;;;8.55;100.00;99476.09;4973046;28;20590;-77
2022/09/27 04:13:03;;;;;;;7.15;1.10;;;;;;;8.55;100.00;99470.94;4975032;28;20255;-77
2022/09/27 04:15:34;;;;;;;2.60;1.08;;;;;;;8.51;100.00;99477.44;4967325;28;20030;-76
2022/09/27 04:18:29;;;;;;;7.93;0.85;;;;;;;8.46;100.00;99475.38;4983330;28;20030;-77
2022/09/27 04:21:13;;;;;;;5.32;1.55;;;;;;;8.51;100.00;99467.09;4984761;28;20049;-76
2022/09/27 04:23:45;;;;;;;5.53;1.02;;;;;;;8.54;100.00;99471.91;4972287;28;20034;-76
2022/09/27 04:26:15;;;;;;;8.63;1.30;;;;;;;8.42;100.00;99481.88;4970180;28;20062;-76
2022/09/27 04:28:50;;;;;;;3.40;0.98;;;;;;;8.37;100.00;99474.59;4988637;28;20033;-77
2022/09/27 04:31:16;;;;;;;5.88;0.98;;;;;;;8.29;100.00;99472.09;4968679;28;20379;-78
2022/09/27 04:33:53;;;;;;;3.83;1.10;;;;;;;8.37;100.00;99477.19;4982508;28;20022;-76
2022/09/27 04:36:30;;;;;;;5.97;0.95;;;;;;;8.32;100.00;99481.25;4984556;28;20034;-77
2022/09/27 04:39:09;;;;;;;7.53;1.27;;;;;;;8.35;100.00;99479.13;4977345;28;20046;-78
2022/09/27 04:41:40;;;;;;;4.25;1.35;;;;;;;8.41;100.00;99487.97;4969794;28;20034;-76
2022/09/27 04:44:06;;;;;;;5.25;0.98;;;;;;;8.37;100.00;99495.25;4984461;28;20414;-77
2022/09/27 04:46:33;;;;;;;6.25;0.80;;;;;;;8.28;100.00;99498.09;4988598;28;20027;-77
2022/09/27 04:48:59;;;;;;;4.85;0.85;;;;;;;8.27;100.00;99484.38;4974234;28;20093;-76
2022/09/27 04:51:26;;;;;;;5.85;1.10;;;;;;;8.33;100.00;99490.63;4973548;28;20022;-76
2022/09/27 04:53:52;;;;;;;4.85;0.70;;;;;;;8.32;100.00;99489.81;4982507;28;20467;-76
2022/09/27 04:56:18;;;;;;;4.75;1.38;;;;;;;8.29;100.00;99490.16;4969703;28;20101;-77
2022/09/27 04:58:44;;;;;;;7.78;2.13;;;;;;;8.30;100.00;99486.59;4970848;28;20034;-76
2022/09/27 05:01:09;;;;;;;8.57;2.05;;;;;;;8.21;100.00;99497.94;4974304;28;20037;-76
2022/09/27 05:03:53;;;;;;;7.30;1.92;;;;;;;8.29;100.00;99495.34;4988826;28;20053;-76
2022/09/27 05:06:19;;;;;;;5.93;0.80;;;;;;;8.25;100.00;99509.56;4984988;28;20034;-77
2022/09/27 05:08:44;;;;;;;4.20;0.93;;;;;;;8.33;100.00;99519.03;4985415;28;20038;-77
2022/09/27 05:11:27;;;;;;;6.05;0.98;;;;;;;8.25;100.00;99512.16;5002795;28;20085;-76
2022/09/27 05:14:12;;;;;;;6.97;2.22;;;;;;;8.28;100.00;99519.53;4991618;28;20052;-78
2022/09/27 05:16:54;;;;;;;5.20;2.00;;;;;;;8.22;100.00;99509.09;4976395;28;20092;-78
2022/09/27 05:19:41;;;;;;;3.22;0.90;;;;;;;8.19;100.00;99505.91;4988890;28;20026;-78
2022/09/27 05:22:18;;;;;;;4.80;0.85;;;;;;;8.21;100.00;99513.44;4970932;28;20023;-77
2022/09/27 05:24:43;;;;;;;2.85;0.98;;;;;;;8.24;100.00;99515.69;5009371;28;20034;-77
2022/09/27 05:27:13;;;;;;;7.68;0.90;;;;;;;8.15;100.00;99517.53;4990698;28;20030;-77
2022/09/27 05:29:40;;;;;;;5.35;1.83;;;;;;;8.15;100.00;99522.69;4986531;28;20049;-77
2022/09/27 05:32:22;;;;;;;7.55;1.20;;;;;;;8.15;100.00;99529.63;4990645;28;20042;-77
2022/09/27 05:34:54;;;;;;;4.47;1.17;;;;;;;8.14;100.00;99522.88;4988689;28;20035;-80
2022/09/27 05:37:20;;;;;;;3.63;0.60;;;;;;;8.14;100.00;99523.69;4986963;28;20498;-77
2022/09/27 05:39:46;;;;;;;7.70;1.05;;;;;;;8.29;100.00;99517.78;4972368;28;20061;-76
2022/09/27 05:42:12;;;;;;;9.40;1.15;;;;;;;8.17;100.00;99519.94;4973726;28;20591;-76
2022/09/27 05:44:39;;;;;;;8.55;0.93;;;;;;;8.31;100.00;99523.56;4991500;28;21840;-75
2022/09/27 05:47:04;;;;;;;7.05;1.75;;;;;;;8.24;100.00;99520.88;4990872;28;20042;-78
2022/09/27 05:49:31;;;;;;;5.93;1.00;;;;;;;8.22;100.00;99520.22;4974146;28;20031;-77
2022/09/27 05:51:57;;;;;;;2.58;0.88;;;;;;;8.29;100.00;99518.56;4976956;28;20612;-77
2022/09/27 05:54:26;;;;;;;8.98;0.90;;;;;;;8.31;100.00;99513.25;4978555;28;20125;-78
2022/09/27 05:56:57;;;;;;;6.90;0.90;;;;;;;8.30;100.00;99527.13;4988596;28;20133;-77
2022/09/27 05:59:33;;;;;;;2.20;0.60;;;;;;;8.29;100.00;99531.50;4991235;28;20042;-78
2022/09/27 06:02:25;;;;;;;7.18;1.17;;;;;;;8.21;100.00;99533.31;4985621;28;20438;-77
2022/09/27 06:05:09;;;;;;;3.08;0.75;;;;;;;8.31;100.00;99539.06;4992581;28;20053;-77
2022/09/27 06:08:11;;;;;;;7.82;1.58;;;;;;;8.30;100.00;99546.00;4993592;28;20096;-77
2022/09/27 06:10:42;;;;;;;7.28;1.08;;;;;;;8.27;100.00;99550.69;4993569;28;20064;-76
2022/09/27 06:13:13;;;;;;;4.93;0.80;;;;;;;8.32;100.00;99544.03;4992014;28;20031;-79
2022/09/27 06:15:43;;;;;;;4.40;0.82;;;;;;;8.49;100.00;99541.38;4977695;28;20042;-76
2022/09/27 06:18:16;;;;;;;7.18;0.80;;;;;;;8.50;100.00;99545.59;4983331;28;20042;-77
2022/09/27 06:20:44;;;;;;;6.47;2.05;;;;;;;8.45;100.00;99545.28;4978733;28;20041;-77
2022/09/27 06:23:12;;;;;;;4.28;0.90;;;;;;;8.39;100.00;99546.75;4995507;28;20047;-77
2022/09/27 06:25:54;;;;;;;5.22;1.35;;;;;;;8.36;100.00;99552.25;4977982;28;20026;-78
2022/09/27 06:28:34;;;;;;;5.05;1.10;;;;;;;8.45;100.00;99546.09;4982111;28;20030;-79
2022/09/27 06:31:03;;;;;;;2.83;0.80;;;;;;;8.34;100.00;99543.88;4981568;28;20094;-76
2022/09/27 06:33:41;;;;;;;4.10;1.02;;;;;;;8.39;100.00;99550.13;4972680;28;20042;-76
2022/09/27 06:36:07;;;;;;;3.78;1.30;;;;;;;8.47;100.00;99559.63;4987847;28;20083;-77
2022/09/27 06:38:35;;;;;;;2.25;0.80;;;;;;;8.44;100.00;99559.19;4983714;28;20340;-78
2022/09/27 06:41:12;;;;;;;5.22;1.60;;;;;;;8.51;100.00;99555.75;4982359;28;20046;-79
2022/09/27 06:43:48;;;;;;;9.82;3.95;;;;;;;8.52;100.00;99553.97;4983821;28;20026;-78
2022/09/27 06:46:32;;;;;;;4.60;2.15;;;;;;;8.53;100.00;99556.38;4995692;28;20053;-78
2022/09/27 06:49:24;;;;;;;7.28;1.40;;;;;;;8.56;100.00;99558.59;4981046;28;20050;-78
2022/09/27 06:51:52;;;;;;;7.97;1.70;;;;;;;8.47;100.00;99566.59;5009710;28;20125;-77
2022/09/27 06:54:18;;;;;;;3.63;1.25;;;;;;;8.44;100.00;99561.75;4979656;28;20035;-78
2022/09/27 06:56:47;;;;;;;5.40;1.60;;;;;;;8.43;100.00;99557.59;4985341;28;20041;-77
2022/09/27 07:02:16;;;;;;;5.38;1.48;;;;;;;8.45;100.00;99566.75;4991717;28;20087;-77
2022/09/27 07:05:03;;;;;;;3.45;1.15;;;;;;;8.51;100.00;99571.25;4985211;28;20034;-77
2022/09/27 07:07:46;;;;;;;;;;;;;;;8.48;100.00;99581.13;4996084;28;20030;-79
2022/09/27 07:10:12;;;;;;;5.57;1.30;;;;;;;8.51;100.00;99579.00;4977880;28;19932;-77
2022/09/27 07:12:40;;;;;;;3.92;1.48;;;;;;;8.55;100.00;99582.84;4976153;28;20030;-76
2022/09/27 07:15:14;;;;;;;4.97;1.90;;;;;;;8.56;100.00;99581.06;4997088;28;20039;-80
2022/09/27 07:17:40;;;;;;;2.08;0.77;;;;;;;8.46;100.00;99583.09;4992380;28;20030;-78
2022/09/27 07:20:06;;;;;;;3.70;1.30;;;;;;;8.46;100.00;99583.09;4988556;28;20035;-77
2022/09/27 07:22:41;;;;;;;7.00;1.10;;;;;;;8.50;100.00;99587.72;4974741;28;20026;-79
2022/09/27 07:25:10;;;;;;;1.83;0.73;;;;;;;8.48;100.00;99581.13;4976756;28;20136;-77
2022/09/27 07:27:40;;;;;;;3.50;0.80;;;;;;;8.53;100.00;99586.56;4983015;28;20035;-77
2022/09/27 07:30:08;;;;;;;7.55;1.00;;;;;;;8.54;100.00;99594.16;4977476;28;20287;-77
2022/09/27 07:32:35;;;;;;;5.43;0.80;;;;;;;8.80;100.00;99597.34;4979355;28;20038;-78
2022/09/27 07:35:08;;;;;;;5.53;1.05;;;;;;;8.68;100.00;99592.63;4996164;28;20121;-78
2022/09/27 07:37:36;;;;;;;1.30;0.73;;;;;;;8.74;100.00;99602.25;4973606;28;20030;-78
2022/09/27 07:40:06;;;;;;;4.40;0.60;;;;;;;8.81;100.00;99596.38;4991291;28;20133;-77
2022/09/27 07:42:32;;;;;;;2.80;0.93;;;;;;;8.93;100.00;99593.22;4987197;28;20072;-77
2022/09/27 07:44:58;;;;;;;4.03;0.80;;;;;;;9.02;100.00;99599.09;4970193;28;20400;-77
2022/09/27 07:47:25;;;;;;;2.03;0.60;;;;;;;9.03;100.00;99605.09;4989262;28;20107;-77
2022/09/27 07:50:07;;;;;;;4.22;0.70;;;;;;;9.05;100.00;99610.91;4978429;28;20039;-78
2022/09/27 07:52:55;;;;;;;3.60;0.63;;;;;;;9.03;100.00;99608.50;4983086;28;20129;-77
2022/09/27 07:55:32;;;;;;;1.63;0.60;;;;;;;9.07;100.00;99608.94;4971983;28;20109;-77
2022/09/27 07:58:09;;;;;;;4.88;1.10;;;;;;;9.04;100.00;99611.88;4988763;28;20073;-77
2022/09/27 08:00:36;;;;;;;1.45;0.63;;;;;;;9.12;100.00;99620.38;4989763;28;20036;-78
2022/09/27 08:03:07;;;;;;;2.30;0.82;;;;;;;9.15;100.00;99617.44;4971707;28;20034;-79
2022/09/27 08:05:35;;;;;;;2.53;0.75;;;;;;;9.23;100.00;99626.09;4968038;28;20034;-78
2022/09/27 08:08:00;;;;;;;1.48;0.45;;;;;;;9.29;100.00;99628.00;4971290;28;20066;-75
2022/09/27 08:10:30;;;;;;;2.90;0.73;;;;;;;9.40;100.00;99632.75;4973230;28;20109;-77
2022/09/27 08:12:57;;;;;;;3.80;1.55;;;;;;;9.43;100.00;99639.34;4977885;28;20038;-79
2022/09/27 08:15:23;;;;;;;4.00;0.80;;;;;;;9.51;100.00;99634.91;4982506;28;20037;-76
2022/09/27 08:17:49;;;;;;;3.22;0.65;;;;;;;9.41;100.00;99636.13;4986054;28;20057;-80
2022/09/27 08:20:21;;;;;;;2.45;0.65;;;;;;;9.29;100.00;99633.97;4986137;28;20573;-77
2022/09/27 08:23:06;;;;;;;3.05;1.10;;;;;;;9.28;100.00;99645.28;4970452;28;20084;-78
2022/09/27 08:25:39;;;;;;;7.87;2.50;;;;;;;9.40;100.00;99647.44;4969317;28;20041;-78
2022/09/27 08:28:26;;;;;;;4.10;0.80;;;;;;;9.41;100.00;99647.28;4988124;28;20121;-78
2022/09/27 08:31:14;;;;;;;2.60;1.40;;;;;;;9.29;100.00;99648.69;4981958;28;20054;-77
2022/09/27 08:33:40;;;;;;;4.47;0.70;;;;;;;9.24;100.00;99648.41;4979506;28;20039;-78
2022/09/27 08:36:13;;;;;;;4.05;0.98;;;;;;;9.26;100.00;99651.63;4976502;28;20037;-79
2022/09/27 08:39:12;;;;;;;1.58;0.90;;;;;;;9.42;100.00;99655.81;4993701;28;20129;-79
2022/09/27 08:42:16;;;;;;;3.15;0.80;;;;;;;9.28;100.00;99657.41;5010563;28;20030;-79
2022/09/27 08:45:00;;;;;;;4.22;1.25;;;;;;;9.26;100.00;99649.03;4967248;28;20506;-76
2022/09/27 08:47:39;;;;;;;4.90;1.45;;;;;;;9.37;100.00;99653.78;4971047;28;20053;-76
2022/09/27 08:50:39;;;;;;;6.82;1.70;;;;;;;9.46;100.00;99657.91;4987126;28;20034;-78
2022/09/27 08:53:22;;;;;;;2.25;1.60;;;;;;;9.55;100.00;99659.44;4991373;28;20037;-77
2022/09/27 08:55:50;;;;;;;5.45;1.65;;;;;;;9.70;100.00;99656.03;4983659;28;20440;-77
2022/09/27 08:58:29;;;;;;;4.15;1.95;;;;;;;9.79;100.00;99654.19;4989464;28;20080;-80
2022/09/27 09:00:59;;;;;;;3.83;2.00;;;;;;;9.79;100.00;99649.00;4971894;28;20041;-76
2022/09/27 09:03:29;;;;;;;;;;;;;;;9.93;100.00;99656.78;4975396;28;20027;-78
2022/09/27 09:06:01;;;;;;;9.13;2.42;;;;;;;10.04;100.00;99646.91;4978359;28;19922;-79
2022/09/27 09:08:34;;;;;;;3.25;1.80;;;;;;;10.25;100.00;99652.19;4993160;28;20126;-78
2022/09/27 09:14:36;;;;;;;2.72;1.80;;;;;;;10.59;100.00;99648.19;4991865;28;20034;-78
2022/09/27 09:17:21;;;;;;;4.18;2.53;;;;;;;10.59;100.00;99650.78;4985330;28;20054;-77
2022/09/27 09:20:14;;;;;;;2.60;1.98;;;;;;;10.66;100.00;99649.06;4974949;28;20035;-78
2022/09/27 09:23:39;;;;;;;3.37;1.40;;;;;;;10.66;98.88;99646.47;4976779;28;20463;-77
2022/09/27 09:26:24;;;;;;;7.05;2.00;;;;;;;10.48;98.88;99644.28;4974297;28;20576;-77
2022/09/27 09:29:49;;;;;;;5.68;1.70;;;;;;;10.56;98.85;99645.97;4989847;28;20415;-81
2022/09/27 09:32:38;;;;;;;5.93;1.88;;;;;;;10.67;99.95;99647.28;4933023;28;20031;-79
2022/09/27 09:35:12;;;;;;;3.33;1.83;;;;;;;10.68;98.42;99647.09;4939431;29;20061;-78
2022/09/27 09:37:43;;;;;;;4.75;1.67;;;;;;;10.83;98.37;99643.63;4959249;28;20039;-77
2022/09/27 09:40:51;;;;;;;5.75;1.30;;;;;;;11.10;99.18;99637.69;4990845;28;20034;-79
2022/09/27 09:43:19;;;;;;;6.03;1.70;;;;;;;11.01;97.99;99632.81;4975699;28;20043;-76
2022/09/27 09:45:50;;;;;;;3.40;1.58;;;;;;;11.02;98.98;99642.19;4995832;28;20026;-77
2022/09/27 09:48:40;;;;;;;4.93;1.38;;;;;;;10.90;97.02;99634.13;4995748;28;20041;-77
2022/09/27 09:51:34;;;;;;;3.72;1.30;;;;;;;10.87;97.95;99639.69;4978271;28;20037;-78
2022/09/27 09:54:17;;;;;;;8.23;2.15;;;;;;;10.64;97.13;99639.84;4977110;28;20034;-79
2022/09/27 09:57:00;;;;;;;9.70;1.20;;;;;;;10.55;97.24;99640.97;4988748;28;20482;-78
2022/09/27 09:59:34;;;;;;;5.30;1.30;;;;;;;10.56;98.62;99643.38;4978478;28;20053;-76
2022/09/27 10:02:37;;;;;;;3.65;1.20;;;;;;;10.44;98.77;99640.47;5010328;28;20078;-77
2022/09/27 10:05:15;;;;;;;7.03;1.52;;;;;;;10.50;99.10;99637.13;4996216;28;20042;-77
2022/09/27 10:07:49;;;;;;;2.80;1.48;;;;;;;10.42;99.38;99641.63;4974337;28;20031;-78
2022/09/27 10:10:20;;;;;;;4.70;1.50;;;;;;;10.44;100.00;99627.50;5001667;28;20040;-78
2022/09/27 10:12:52;;;;;;;3.50;1.75;;;;;;;10.59;100.00;99627.47;4994109;28;20053;-78
2022/09/27 10:15:24;;;;;;;2.47;1.70;;;;;;;10.43;100.00;99631.06;4999048;28;20126;-80
2022/09/27 10:17:57;;;;;;;4.68;1.73;;;;;;;10.51;100.00;99633.56;4980370;28;20027;-77
2022/09/27 10:20:45;;;;;;;6.28;2.05;;;;;;;10.50;100.00;99631.94;5002043;28;20035;-78
2022/09/27 10:23:24;;;;;;;4.78;1.85;;;;;;;10.56;100.00;99625.22;4986748;28;20639;-78
2022/09/27 10:26:07;;;;;;;6.13;3.33;;;;;;;10.62;100.00;99629.66;4999622;28;20029;-78
2022/09/27 10:31:40;;;;;;;4.78;2.67;;;;;;;10.52;100.00;99626.59;4991053;28;20112;-77
2022/09/27 10:34:40;;;;;;;4.35;2.17;;;;;;;10.51;100.00;99625.00;4991985;28;20164;-79
2022/09/27 10:37:09;;;;;;;6.05;2.63;;;;;;;10.53;100.00;99628.19;4995452;28;20332;-79
2022/09/27 10:39:46;;;;;;;10.27;3.05;;;;;;;10.54;100.00;99623.81;4980803;28;20015;-78
2022/09/27 10:42:19;;;;;;;7.22;2.88;;;;;;;10.58;100.00;99620.66;4976333;28;20094;-79
2022/09/27 10:44:46;;;;;;;4.22;3.05;;;;;;;10.54;100.00;99623.81;4995229;28;20143;-79
2022/09/27 10:47:38;;;;;;;6.43;3.00;;;;;;;10.65;100.00;99629.31;4986123;28;20038;-76
2022/09/27 10:50:20;;;;;;;6.25;3.10;;;;;;;10.70;100.00;99626.97;4979842;28;20556;-78
2022/09/27 10:53:04;;;;;;;4.72;2.70;;;;;;;10.73;100.00;99619.81;4996850;28;20043;-79
2022/09/27 10:55:35;;;;;;;6.32;3.17;;;;;;;10.94;100.00;99619.78;4996920;28;20036;-77
2022/09/27 10:58:02;;;;;;;5.68;3.70;;;;;;;11.00;100.00;99619.06;4989085;28;20042;-78
2022/09/27 11:00:36;;;;;;;7.10;3.30;;;;;;;11.01;100.00;99625.84;4987234;28;20037;-79
2022/09/27 11:03:11;;;;;;;5.53;3.22;;;;;;;11.18;99.76;99621.19;4993400;28;20049;-78
2022/09/27 11:05:38;;;;;;;5.55;3.17;;;;;;;11.20;98.59;99626.97;4996511;28;20030;-78
2022/09/27 11:08:34;;;;;;;8.35;3.45;;;;;;;11.23;99.48;99618.81;4988558;28;20034;-78
2022/09/27 11:11:13;;;;;;;6.18;4.13;;;;;;;11.13;97.54;99620.94;4967774;28;20049;-77
2022/09/27 11:13:40;;;;;;;9.38;2.55;;;;;;;11.17;97.95;99618.75;4981518;28;20033;-79
2022/09/27 11:16:43;;;;;;;5.15;2.88;;;;;;;11.16;94.61;99623.16;4988574;28;20026;-78
2022/09/27 11:19:34;;;;;;;11.07;2.90;;;;;;;11.19;96.70;99616.78;4985162;28;20062;-78
2022/09/27 11:22:28;;;;;;;4.88;2.72;;;;;;;11.27;94.95;99614.06;4970581;28;20400;-78
2022/09/27 11:25:03;;;;;;;5.38;2.47;;;;;;;11.16;94.02;99612.00;4969819;28;20042;-77
2022/09/27 11:27:46;;;;;;;5.50;2.63;;;;;;;11.40;95.18;99608.97;4991413;28;22156;-77
2022/09/27 11:30:18;;;;;;;4.00;2.60;;;;;;;11.39;94.86;99609.94;4970849;28;20121;-77
2022/09/27 11:33:15;;;;;;;3.65;2.10;;;;;;;11.40;95.35;99606.38;4972030;28;20439;-78
2022/09/27 11:36:06;;;;;;;5.72;2.78;;;;;;;11.28;95.27;99600.91;4970544;28;20026;-78
2022/09/27 11:38:50;;;;;;;2.90;2.00;;;;;;;11.21;93.04;99604.44;4968047;28;20034;-78
2022/09/27 11:41:37;;;;;;;3.80;2.22;;;;;;;11.33;93.72;99607.31;4970989;28;20515;-78
2022/09/27 11:44:41;;;;;;;6.28;2.92;;;;;;;11.38;93.87;99603.16;4984250;28;20046;-79
2022/09/27 11:47:19;;;;;;;4.25;2.58;;;;;;;11.42;91.13;99591.41;4961468;28;20038;-79
2022/09/27 11:50:03;;;;;;;3.58;2.22;;;;;;;11.49;93.89;99597.44;4985930;28;20048;-78
2022/09/27 11:52:57;;;;;;;5.15;2.17;;;;;;;11.49;90.29;99594.84;4983681;28;20038;-79
2022/09/27 11:55:39;;;;;;;5.78;2.50;;;;;;;11.47;89.15;99593.41;4987937;28;20030;-79
2022/09/27 11:58:32;;;;;;;4.82;2.70;;;;;;;11.35;89.46;99598.34;4972085;28;20042;-78
2022/09/27 12:01:31;;;;;;;3.45;2.00;;;;;;;11.27;90.14;99601.09;4985782;28;20105;-78
2022/09/27 12:04:19;;;;;;;10.27;5.45;;;;;;;11.23;91.11;99605.84;4984384;28;20027;-78
2022/09/27 12:07:10;;;;;;;5.20;1.48;;;;;;;11.23;90.51;99605.06;4962670;28;20038;-78
2022/09/27 12:09:46;;;;;;;3.08;1.40;;;;;;;11.28;88.28;99600.09;4981205;28;20042;-77
2022/09/27 12:12:13;;;;;;;3.92;0.88;;;;;;;11.39;88.17;99593.56;4987736;28;20058;-79
2022/09/27 12:14:41;;;;;;;1.45;0.80;;;;;;;11.66;86.75;99594.53;4969605;28;20026;-79
2022/09/27 12:17:18;;;;;;;2.80;1.10;;;;;;;11.77;86.71;99598.38;4973889;28;20155;-79
2022/09/27 12:19:51;;;;;;;1.50;1.20;;;;;;;11.67;85.57;99604.72;4968800;28;20042;-77
2022/09/27 12:22:27;;;;;;;4.03;1.40;;;;;;;11.48;88.56;99611.41;4972142;28;20056;-77
2022/09/27 12:24:53;;;;;;;;;;;;;;;11.27;89.87;99611.47;4973635;28;20140;-77
2022/09/27 12:28:01;;;;;;;2.78;1.88;;;;;;;11.06;90.50;99620.09;4989605;28;19976;-77